TLPL/UVF METAR and TAF weather

Enter ICAO airport designator
Station Type Date Time Source
TLPL METAR 2021/01/16 03:00 UTC NOAA

TLPL 160300Z 06016KT 9999 BKN021 26/22 Q1014 TEMPO SHRA


Station Type Date Time Source
TLPL Decoded METAR 2021/01/16 03:00 UTC NOAA

Hewanorra International Airport, Saint Lucia (TLPL) 13-45N 060-57W 10M
Jan 15, 2021 - 10:00 PM EST / 2021.01.16 0300 UTC
Wind: from the ENE (060 degrees) at 18 MPH (16 KT):0
Visibility: greater than 7 mile(s):0
Sky conditions: mostly cloudy
Temperature: 78 F (26 C)
Dew Point: 71 F (22 C)
Relative Humidity: 78%
Pressure (altimeter): 29.94 in. Hg (1014 hPa)
ob: TLPL 160300Z 06016KT 9999 BKN021 26/22 Q1014 TEMPO SHRA
cycle: 3

Station Type Date Time Source
TLPL TAF 2021/01/15 18:06 UTC NOAA

TAF TLPL 151700Z 1518/1618 07017KT 9999 SCT024
TEMPO 1518/1606 5000 SHRA FEW010 BKN018 BKN038

Example: see airport list